sensor_id;sensor_type;location;lat;lon;timestamp;pressure;altitude;pressure_sealevel;temperature;humidity
50123;BME280;36021;48.670;6.184;2023-03-11T00:01:54;98270.84;;;3.08;100.00
50123;BME280;36021;48.670;6.184;2023-03-11T00:04:20;98270.25;;;2.96;100.00
50123;BME280;36021;48.670;6.184;2023-03-11T00:06:46;98292.56;;;2.98;100.00
50123;BME280;36021;48.670;6.184;2023-03-11T00:09:12;98285.03;;;3.10;100.00
50123;BME280;36021;48.670;6.184;2023-03-11T00:11:37;98288.88;;;3.20;100.00
50123;BME280;36021;48.670;6.184;2023-03-11T00:14:03;98282.91;;;3.28;100.00
50123;BME280;36021;48.670;6.184;2023-03-11T00:16:29;98288.41;;;3.33;100.00
50123;BME280;36021;48.670;6.184;2023-03-11T00:18:54;98283.50;;;3.35;100.00
50123;BME280;36021;48.670;6.184;2023-03-11T00:21:20;98282.38;;;3.26;100.00
50123;BME280;36021;48.670;6.184;2023-03-11T00:23:46;98284.03;;;3.27;100.00
50123;BME280;36021;48.670;6.184;2023-03-11T00:26:12;98300.34;;;3.27;100.00
50123;BME280;36021;48.670;6.184;2023-03-11T00:28:37;98293.00;;;3.32;100.00
50123;BME280;36021;48.670;6.184;2023-03-11T00:31:03;98297.59;;;3.22;100.00
50123;BME280;36021;48.670;6.184;2023-03-11T00:33:29;98293.31;;;3.41;100.00
50123;BME280;36021;48.670;6.184;2023-03-11T00:35:55;98298.47;;;3.32;100.00
50123;BME280;36021;48.670;6.184;2023-03-11T00:38:21;98308.53;;;3.27;100.00
50123;BME280;36021;48.670;6.184;2023-03-11T00:40:48;98312.31;;;3.21;100.00
50123;BME280;36021;48.670;6.184;2023-03-11T00:43:14;98299.25;;;3.23;100.00
50123;BME280;36021;48.670;6.184;2023-03-11T00:45:41;98290.78;;;3.24;100.00
50123;BME280;36021;48.670;6.184;2023-03-11T00:48:07;98274.78;;;3.33;100.00
50123;BME280;36021;48.670;6.184;2023-03-11T00:50:35;98275.28;;;3.25;100.00
50123;BME280;36021;48.670;6.184;2023-03-11T00:53:02;98284.50;;;3.19;100.00
50123;BME280;36021;48.670;6.184;2023-03-11T00:55:30;98322.03;;;3.06;100.00
50123;BME280;36021;48.670;6.184;2023-03-11T00:58:00;98316.81;;;3.00;100.00
50123;BME280;36021;48.670;6.184;2023-03-11T01:00:31;98304.03;;;3.05;100.00
50123;BME280;36021;48.670;6.184;2023-03-11T01:02:58;98301.31;;;3.00;100.00
50123;BME280;36021;48.670;6.184;2023-03-11T01:05:27;98316.06;;;3.09;100.00
50123;BME280;36021;48.670;6.184;2023-03-11T01:07:54;98302.44;;;3.09;100.00
50123;BME280;36021;48.670;6.184;2023-03-11T01:10:21;98292.28;;;2.95;100.00
50123;BME280;36021;48.670;6.184;2023-03-11T01:12:47;98287.13;;;2.98;100.00
50123;BME280;36021;48.670;6.184;2023-03-11T01:15:22;98266.19;;;2.99;100.00
50123;BME280;36021;48.670;6.184;2023-03-11T01:17:49;98260.44;;;2.95;100.00
50123;BME280;36021;48.670;6.184;2023-03-11T01:20:15;98259.34;;;2.91;100.00
50123;BME280;36021;48.670;6.184;2023-03-11T01:22:41;98265.84;;;2.85;100.00
50123;BME280;36021;48.670;6.184;2023-03-11T01:25:08;98290.31;;;2.80;100.00
50123;BME280;36021;48.670;6.184;2023-03-11T01:27:35;98280.78;;;2.83;100.00
50123;BME280;36021;48.670;6.184;2023-03-11T01:30:01;98275.09;;;2.84;100.00
50123;BME280;36021;48.670;6.184;2023-03-11T01:32:27;98290.97;;;2.97;100.00
50123;BME280;36021;48.670;6.184;2023-03-11T01:34:53;98289.59;;;3.00;100.00
50123;BME280;36021;48.670;6.184;2023-03-11T01:37:18;98298.00;;;2.98;100.00
50123;BME280;36021;48.670;6.184;2023-03-11T01:39:44;98295.88;;;3.00;100.00
50123;BME280;36021;48.670;6.184;2023-03-11T01:42:11;98290.19;;;3.07;100.00
50123;BME280;36021;48.670;6.184;2023-03-11T01:44:37;98286.66;;;3.11;100.00
50123;BME280;36021;48.670;6.184;2023-03-11T01:49:31;98295.16;;;3.20;100.00
50123;BME280;36021;48.670;6.184;2023-03-11T01:52:00;98289.13;;;3.18;100.00
50123;BME280;36021;48.670;6.184;2023-03-11T01:54:32;98302.50;;;3.25;100.00
50123;BME280;36021;48.670;6.184;2023-03-11T01:57:04;98291.38;;;3.31;100.00
50123;BME280;36021;48.670;6.184;2023-03-11T01:59:35;98287.81;;;3.26;100.00
50123;BME280;36021;48.670;6.184;2023-03-11T02:02:19;98300.31;;;3.22;100.00
50123;BME280;36021;48.670;6.184;2023-03-11T02:04:47;98292.69;;;3.19;100.00
50123;BME280;36021;48.670;6.184;2023-03-11T02:07:16;98280.19;;;3.28;100.00
50123;BME280;36021;48.670;6.184;2023-03-11T02:09:44;98266.03;;;3.31;100.00
50123;BME280;36021;48.670;6.184;2023-03-11T02:12:12;98257.13;;;3.40;100.00
50123;BME280;36021;48.670;6.184;2023-03-11T02:14:43;98239.97;;;3.40;100.00
50123;BME280;36021;48.670;6.184;2023-03-11T02:17:10;98229.88;;;3.50;100.00
50123;BME280;36021;48.670;6.184;2023-03-11T02:22:29;98266.84;;;3.26;100.00
50123;BME280;36021;48.670;6.184;2023-03-11T02:25:20;98266.56;;;3.23;100.00
50123;BME280;36021;48.670;6.184;2023-03-11T02:27:52;98267.41;;;3.23;100.00
50123;BME280;36021;48.670;6.184;2023-03-11T02:30:22;98242.06;;;3.23;100.00
50123;BME280;36021;48.670;6.184;2023-03-11T02:32:50;98229.81;;;3.25;100.00
50123;BME280;36021;48.670;6.184;2023-03-11T02:35:18;98229.78;;;3.15;100.00
50123;BME280;36021;48.670;6.184;2023-03-11T02:37:48;98225.16;;;3.10;100.00
50123;BME280;36021;48.670;6.184;2023-03-11T02:40:33;98214.75;;;3.02;100.00
50123;BME280;36021;48.670;6.184;2023-03-11T02:43:02;98228.38;;;3.02;100.00
50123;BME280;36021;48.670;6.184;2023-03-11T02:45:30;98214.50;;;3.04;100.00
50123;BME280;36021;48.670;6.184;2023-03-11T02:47:57;98222.16;;;3.07;100.00
50123;BME280;36021;48.670;6.184;2023-03-11T02:50:25;98214.75;;;2.97;100.00
50123;BME280;36021;48.670;6.184;2023-03-11T02:52:54;98228.84;;;2.89;100.00
50123;BME280;36021;48.670;6.184;2023-03-11T02:55:22;98228.31;;;2.87;100.00
50123;BME280;36021;48.670;6.184;2023-03-11T02:57:48;98231.63;;;2.94;100.00
50123;BME280;36021;48.670;6.184;2023-03-11T03:00:16;98232.22;;;3.06;100.00
50123;BME280;36021;48.670;6.184;2023-03-11T03:02:50;98244.88;;;2.86;100.00
50123;BME280;36021;48.670;6.184;2023-03-11T03:05:19;98243.00;;;2.91;100.00
50123;BME280;36021;48.670;6.184;2023-03-11T03:07:48;98240.84;;;2.93;100.00
50123;BME280;36021;48.670;6.184;2023-03-11T03:10:18;98228.38;;;2.97;100.00
50123;BME280;36021;48.670;6.184;2023-03-11T03:12:45;98225.94;;;3.06;100.00
50123;BME280;36021;48.670;6.184;2023-03-11T03:15:11;98233.84;;;3.12;100.00
50123;BME280;36021;48.670;6.184;2023-03-11T03:17:37;98244.50;;;3.24;100.00
50123;BME280;36021;48.670;6.184;2023-03-11T03:20:06;98256.53;;;3.33;100.00
50123;BME280;36021;48.670;6.184;2023-03-11T03:22:37;98255.44;;;3.34;100.00
50123;BME280;36021;48.670;6.184;2023-03-11T03:25:03;98262.81;;;3.34;100.00
50123;BME280;36021;48.670;6.184;2023-03-11T03:27:30;98264.72;;;3.38;100.00
50123;BME280;36021;48.670;6.184;2023-03-11T03:29:56;98263.31;;;3.31;100.00
50123;BME280;36021;48.670;6.184;2023-03-11T03:32:22;98259.53;;;3.32;100.00
50123;BME280;36021;48.670;6.184;2023-03-11T03:34:47;98255.44;;;3.29;100.00
50123;BME280;36021;48.670;6.184;2023-03-11T03:37:13;98252.41;;;3.26;100.00
50123;BME280;36021;48.670;6.184;2023-03-11T03:39:40;98256.22;;;3.20;100.00
50123;BME280;36021;48.670;6.184;2023-03-11T03:42:07;98258.66;;;3.16;100.00
50123;BME280;36021;48.670;6.184;2023-03-11T03:44:37;98263.25;;;3.10;100.00
50123;BME280;36021;48.670;6.184;2023-03-11T03:47:04;98263.78;;;3.07;100.00
50123;BME280;36021;48.670;6.184;2023-03-11T03:49:30;98264.91;;;3.17;100.00
50123;BME280;36021;48.670;6.184;2023-03-11T03:51:56;98275.22;;;3.14;100.00
50123;BME280;36021;48.670;6.184;2023-03-11T03:54:30;98289.66;;;3.15;100.00
50123;BME280;36021;48.670;6.184;2023-03-11T03:56:57;98291.31;;;3.16;100.00
50123;BME280;36021;48.670;6.184;2023-03-11T03:59:25;98297.88;;;3.20;100.00
50123;BME280;36021;48.670;6.184;2023-03-11T04:01:54;98299.53;;;3.26;100.00
50123;BME280;36021;48.670;6.184;2023-03-11T04:04:22;98293.31;;;3.36;100.00
50123;BME280;36021;48.670;6.184;2023-03-11T04:06:48;98288.69;;;3.36;100.00
50123;BME280;36021;48.670;6.184;2023-03-11T04:09:14;98301.22;;;3.47;100.00
50123;BME280;36021;48.670;6.184;2023-03-11T04:11:41;98298.28;;;3.59;100.00
50123;BME280;36021;48.670;6.184;2023-03-11T04:14:08;98304.03;;;3.67;100.00
50123;BME280;36021;48.670;6.184;2023-03-11T04:16:40;98296.94;;;3.66;100.00
50123;BME280;36021;48.670;6.184;2023-03-11T04:19:10;98288.00;;;3.76;100.00
50123;BME280;36021;48.670;6.184;2023-03-11T04:21:36;98283.09;;;3.88;100.00
50123;BME280;36021;48.670;6.184;2023-03-11T04:24:03;98291.03;;;3.95;100.00
50123;BME280;36021;48.670;6.184;2023-03-11T04:26:33;98273.56;;;3.86;100.00
50123;BME280;36021;48.670;6.184;2023-03-11T04:28:59;98273.81;;;3.84;100.00
50123;BME280;36021;48.670;6.184;2023-03-11T04:31:28;98273.00;;;3.79;100.00
50123;BME280;36021;48.670;6.184;2023-03-11T04:33:54;98279.31;;;3.89;100.00
50123;BME280;36021;48.670;6.184;2023-03-11T04:36:20;98274.94;;;3.88;100.00
50123;BME280;36021;48.670;6.184;2023-03-11T04:38:47;98274.66;;;3.90;100.00
50123;BME280;36021;48.670;6.184;2023-03-11T04:41:14;98278.44;;;3.84;100.00
50123;BME280;36021;48.670;6.184;2023-03-11T04:43:41;98268.91;;;3.81;100.00
50123;BME280;36021;48.670;6.184;2023-03-11T04:46:06;98271.91;;;3.80;100.00
50123;BME280;36021;48.670;6.184;2023-03-11T04:48:32;98274.63;;;3.70;100.00
50123;BME280;36021;48.670;6.184;2023-03-11T04:50:58;98268.91;;;3.71;100.00
50123;BME280;36021;48.670;6.184;2023-03-11T04:53:24;98268.66;;;3.83;100.00
50123;BME280;36021;48.670;6.184;2023-03-11T04:55:52;98275.50;;;3.95;100.00
50123;BME280;36021;48.670;6.184;2023-03-11T04:58:19;98275.22;;;4.02;100.00
50123;BME280;36021;48.670;6.184;2023-03-11T05:00:46;98281.75;;;4.06;100.00
50123;BME280;36021;48.670;6.184;2023-03-11T05:03:13;98279.84;;;4.01;100.00
50123;BME280;36021;48.670;6.184;2023-03-11T05:05:41;98280.41;;;4.03;100.00
50123;BME280;36021;48.670;6.184;2023-03-11T05:08:10;98269.47;;;3.88;100.00
50123;BME280;36021;48.670;6.184;2023-03-11T05:10:39;98262.91;;;3.74;100.00
50123;BME280;36021;48.670;6.184;2023-03-11T05:13:06;98268.09;;;3.81;100.00
50123;BME280;36021;48.670;6.184;2023-03-11T05:15:36;98272.72;;;3.80;100.00
50123;BME280;36021;48.670;6.184;2023-03-11T05:18:03;98275.72;;;3.79;100.00
50123;BME280;36021;48.670;6.184;2023-03-11T05:20:29;98279.25;;;3.74;100.00
50123;BME280;36021;48.670;6.184;2023-03-11T05:22:57;98277.59;;;3.73;100.00
50123;BME280;36021;48.670;6.184;2023-03-11T05:25:23;98285.78;;;3.68;100.00
50123;BME280;36021;48.670;6.184;2023-03-11T05:27:49;98292.88;;;3.69;100.00
50123;BME280;36021;48.670;6.184;2023-03-11T05:30:16;98296.94;;;3.61;100.00
50123;BME280;36021;48.670;6.184;2023-03-11T05:32:43;98295.59;;;3.69;100.00
50123;BME280;36021;48.670;6.184;2023-03-11T05:35:09;98294.81;;;3.79;100.00
50123;BME280;36021;48.670;6.184;2023-03-11T05:37:35;98296.72;;;3.83;100.00
50123;BME280;36021;48.670;6.184;2023-03-11T05:40:05;98302.72;;;3.85;100.00
50123;BME280;36021;48.670;6.184;2023-03-11T05:42:33;98306.81;;;3.88;100.00
50123;BME280;36021;48.670;6.184;2023-03-11T05:45:00;98316.63;;;3.89;100.00
50123;BME280;36021;48.670;6.184;2023-03-11T05:47:26;98315.25;;;3.86;100.00
50123;BME280;36021;48.670;6.184;2023-03-11T05:49:54;98309.81;;;3.91;100.00
50123;BME280;36021;48.670;6.184;2023-03-11T05:52:21;98314.97;;;3.93;100.00
50123;BME280;36021;48.670;6.184;2023-03-11T05:54:51;98304.38;;;3.96;100.00
50123;BME280;36021;48.670;6.184;2023-03-11T05:57:20;98312.00;;;3.89;100.00
50123;BME280;36021;48.670;6.184;2023-03-11T05:59:46;98314.72;;;3.94;100.00
50123;BME280;36021;48.670;6.184;2023-03-11T06:02:12;98315.25;;;3.96;100.00
50123;BME280;36021;48.670;6.184;2023-03-11T06:04:39;98312.81;;;3.90;100.00
50123;BME280;36021;48.670;6.184;2023-03-11T06:07:07;98320.44;;;3.83;100.00
50123;BME280;36021;48.670;6.184;2023-03-11T06:09:36;98323.44;;;3.91;100.00
50123;BME280;36021;48.670;6.184;2023-03-11T06:12:04;98320.72;;;3.96;100.00
50123;BME280;36021;48.670;6.184;2023-03-11T06:14:45;98331.38;;;4.03;100.00
50123;BME280;36021;48.670;6.184;2023-03-11T06:17:10;98326.16;;;3.86;100.00
50123;BME280;36021;48.670;6.184;2023-03-11T06:19:36;98330.00;;;3.95;100.00
50123;BME280;36021;48.670;6.184;2023-03-11T06:22:02;98315.25;;;3.96;100.00
50123;BME280;36021;48.670;6.184;2023-03-11T06:24:28;98330.03;;;4.05;100.00
50123;BME280;36021;48.670;6.184;2023-03-11T06:26:54;98322.38;;;4.12;100.00
50123;BME280;36021;48.670;6.184;2023-03-11T06:29:22;98325.09;;;3.92;100.00
50123;BME280;36021;48.670;6.184;2023-03-11T06:31:51;98336.00;;;3.92;100.00
50123;BME280;36021;48.670;6.184;2023-03-11T06:34:16;98355.59;;;3.79;100.00
50123;BME280;36021;48.670;6.184;2023-03-11T06:36:42;98357.72;;;3.77;100.00
50123;BME280;36021;48.670;6.184;2023-03-11T06:39:12;98346.06;;;3.92;100.00
50123;BME280;36021;48.670;6.184;2023-03-11T06:41:41;98357.84;;;4.02;100.00
50123;BME280;36021;48.670;6.184;2023-03-11T06:44:09;98364.38;;;4.11;100.00
50123;BME280;36021;48.670;6.184;2023-03-11T06:46:36;98368.72;;;4.07;100.00
50123;BME280;36021;48.670;6.184;2023-03-11T06:49:02;98373.66;;;4.05;100.00
50123;BME280;36021;48.670;6.184;2023-03-11T06:51:29;98375.25;;;3.96;100.00
50123;BME280;36021;48.670;6.184;2023-03-11T06:53:55;98371.16;;;3.89;100.00
50123;BME280;36021;48.670;6.184;2023-03-11T06:56:22;98380.94;;;3.90;100.00
50123;BME280;36021;48.670;6.184;2023-03-11T06:58:57;98370.84;;;3.85;100.00
50123;BME280;36021;48.670;6.184;2023-03-11T07:01:26;98370.31;;;3.93;100.00
50123;BME280;36021;48.670;6.184;2023-03-11T07:03:54;98370.91;;;3.95;100.00
50123;BME280;36021;48.670;6.184;2023-03-11T07:06:26;98384.81;;;3.99;100.00
50123;BME280;36021;48.670;6.184;2023-03-11T07:08:58;98384.56;;;4.05;100.00
50123;BME280;36021;48.670;6.184;2023-03-11T07:11:26;98386.16;;;4.06;100.00
50123;BME280;36021;48.670;6.184;2023-03-11T07:13:58;98385.09;;;4.02;100.00
50123;BME280;36021;48.670;6.184;2023-03-11T07:16:27;98397.38;;;4.15;100.00
50123;BME280;36021;48.670;6.184;2023-03-11T07:18:59;98412.13;;;4.29;100.00
50123;BME280;36021;48.670;6.184;2023-03-11T07:21:28;98400.16;;;4.45;100.00
50123;BME280;36021;48.670;6.184;2023-03-11T07:23:55;98396.66;;;4.60;100.00
50123;BME280;36021;48.670;6.184;2023-03-11T07:26:22;98389.53;;;4.59;100.00
50123;BME280;36021;48.670;6.184;2023-03-11T07:28:49;98393.91;;;4.75;100.00
50123;BME280;36021;48.670;6.184;2023-03-11T07:31:17;98395.81;;;4.85;100.00
50123;BME280;36021;48.670;6.184;2023-03-11T07:33:44;98382.19;;;4.90;100.00
50123;BME280;36021;48.670;6.184;2023-03-11T07:36:16;98387.91;;;4.98;100.00
50123;BME280;36021;48.670;6.184;2023-03-11T07:38:43;98390.66;;;5.03;100.00
50123;BME280;36021;48.670;6.184;2023-03-11T07:41:11;98403.19;;;5.09;100.00
50123;BME280;36021;48.670;6.184;2023-03-11T07:43:38;98399.91;;;5.22;100.00
50123;BME280;36021;48.670;6.184;2023-03-11T07:46:07;98399.88;;;5.33;100.00
50123;BME280;36021;48.670;6.184;2023-03-11T07:48:35;98403.16;;;5.35;100.00
50123;BME280;36021;48.670;6.184;2023-03-11T07:51:14;98400.97;;;5.32;100.00
50123;BME280;36021;48.670;6.184;2023-03-11T07:53:41;98393.88;;;5.25;100.00
50123;BME280;36021;48.670;6.184;2023-03-11T07:56:09;98400.41;;;5.40;100.00
50123;BME280;36021;48.670;6.184;2023-03-11T07:58:39;98408.88;;;5.38;100.00
50123;BME280;36021;48.670;6.184;2023-03-11T08:01:07;98397.69;;;5.35;100.00
50123;BME280;36021;48.670;6.184;2023-03-11T08:03:34;98408.03;;;5.53;100.00
50123;BME280;36021;48.670;6.184;2023-03-11T08:06:01;98407.09;;;7.43;100.00
50123;BME280;36021;48.670;6.184;2023-03-11T08:08:27;98411.00;;;10.62;100.00
50123;BME280;36021;48.670;6.184;2023-03-11T08:10:54;98402.38;;;13.47;100.00
50123;BME280;36021;48.670;6.184;2023-03-11T08:13:19;98398.78;;;15.76;100.00
50123;BME280;36021;48.670;6.184;2023-03-11T08:15:45;98399.78;;;18.19;80.53
50123;BME280;36021;48.670;6.184;2023-03-11T08:18:11;98411.16;;;19.66;52.06
50123;BME280;36021;48.670;6.184;2023-03-11T08:20:37;98410.13;;;19.97;45.32
50123;BME280;36021;48.670;6.184;2023-03-11T08:23:04;98410.91;;;20.39;42.79
50123;BME280;36021;48.670;6.184;2023-03-11T08:25:30;98416.63;;;22.28;43.75
50123;BME280;36021;48.670;6.184;2023-03-11T08:27:55;98411.91;;;21.62;38.62
50123;BME280;36021;48.670;6.184;2023-03-11T08:30:22;98422.53;;;22.60;36.33
50123;BME280;36021;48.670;6.184;2023-03-11T08:32:48;98426.88;;;23.74;35.18
50123;BME280;36021;48.670;6.184;2023-03-11T08:35:14;98428.81;;;23.59;32.76
50123;BME280;36021;48.670;6.184;2023-03-11T08:37:40;98427.25;;;23.65;32.73
50123;BME280;36021;48.670;6.184;2023-03-11T08:40:06;98421.31;;;25.54;34.33
50123;BME280;36021;48.670;6.184;2023-03-11T08:42:35;98428.00;;;25.88;32.49
50123;BME280;36021;48.670;6.184;2023-03-11T08:45:01;98428.56;;;25.41;30.87
50123;BME280;36021;48.670;6.184;2023-03-11T08:47:26;98428.78;;;25.96;31.42
50123;BME280;36021;48.670;6.184;2023-03-11T08:49:52;98429.88;;;24.73;29.72
50123;BME280;36021;48.670;6.184;2023-03-11T08:52:18;98431.47;;;24.74;30.42
50123;BME280;36021;48.670;6.184;2023-03-11T08:54:44;98429.75;;;25.65;30.37
50123;BME280;36021;48.670;6.184;2023-03-11T08:57:10;98425.56;;;27.08;29.32
50123;BME280;36021;48.670;6.184;2023-03-11T08:59:37;98433.34;;;26.45;28.22
50123;BME280;36021;48.670;6.184;2023-03-11T09:02:02;98439.34;;;23.76;30.32
50123;BME280;36021;48.670;6.184;2023-03-11T09:04:28;98446.09;;;22.93;37.25
50123;BME280;36021;48.670;6.184;2023-03-11T09:06:54;98442.16;;;21.46;36.09
50123;BME280;36021;48.670;6.184;2023-03-11T09:09:20;98447.78;;;21.46;33.52
50123;BME280;36021;48.670;6.184;2023-03-11T09:11:47;98454.84;;;22.80;32.03
50123;BME280;36021;48.670;6.184;2023-03-11T09:14:13;98446.25;;;21.52;31.43
50123;BME280;36021;48.670;6.184;2023-03-11T09:16:39;98446.44;;;20.35;34.55
50123;BME280;36021;48.670;6.184;2023-03-11T09:19:05;98448.38;;;20.31;35.59
50123;BME280;36021;48.670;6.184;2023-03-11T09:21:33;98457.16;;;19.49;38.31
50123;BME280;36021;48.670;6.184;2023-03-11T09:23:59;98459.47;;;21.52;45.32
50123;BME280;36021;48.670;6.184;2023-03-11T09:26:25;98452.16;;;23.63;34.23
50123;BME280;36021;48.670;6.184;2023-03-11T09:28:51;98462.78;;;21.31;33.74
50123;BME280;36021;48.670;6.184;2023-03-11T09:31:17;98467.28;;;19.76;38.12
50123;BME280;36021;48.670;6.184;2023-03-11T09:33:44;98458.69;;;18.77;55.09
50123;BME280;36021;48.670;6.184;2023-03-11T09:36:13;98459.34;;;17.40;45.37
50123;BME280;36021;48.670;6.184;2023-03-11T09:38:40;98456.53;;;16.40;76.15
50123;BME280;36021;48.670;6.184;2023-03-11T09:52:15;98463.25;;;12.31;89.83
50123;BME280;36021;48.670;6.184;2023-03-11T09:54:46;98454.94;;;12.14;91.09
50123;BME280;36021;48.670;6.184;2023-03-11T09:57:15;98450.06;;;12.19;93.52
50123;BME280;36021;48.670;6.184;2023-03-11T09:59:44;98452.53;;;11.90;92.50
50123;BME280;36021;48.670;6.184;2023-03-11T10:02:14;98445.69;;;11.65;91.12
50123;BME280;36021;48.670;6.184;2023-03-11T10:05:00;98445.03;;;11.60;97.05
50123;BME280;36021;48.670;6.184;2023-03-11T10:07:37;98457.59;;;11.21;93.31
50123;BME280;36021;48.670;6.184;2023-03-11T10:10:05;98454.91;;;12.70;76.68
50123;BME280;36021;48.670;6.184;2023-03-11T10:13:17;98442.00;;;16.55;56.00
50123;BME280;36021;48.670;6.184;2023-03-11T10:24:00;98429.66;;;21.73;31.18
50123;BME280;36021;48.670;6.184;2023-03-11T10:26:33;98434.41;;;22.91;30.28
50123;BME280;36021;48.670;6.184;2023-03-11T10:29:10;98425.69;;;22.55;31.79
50123;BME280;36021;48.670;6.184;2023-03-11T10:31:43;98435.50;;;21.91;31.06
50123;BME280;36021;48.670;6.184;2023-03-11T10:34:27;98451.47;;;23.91;29.25
50123;BME280;36021;48.670;6.184;2023-03-11T10:37:01;98446.53;;;23.63;27.71
50123;BME280;36021;48.670;6.184;2023-03-11T10:39:33;98443.41;;;22.19;29.11
50123;BME280;36021;48.670;6.184;2023-03-11T10:42:20;98433.88;;;23.29;27.47
50123;BME280;36021;48.670;6.184;2023-03-11T10:44:46;98429.06;;;24.65;26.66
50123;BME280;36021;48.670;6.184;2023-03-11T10:47:21;98430.97;;;25.53;25.47
50123;BME280;36021;48.670;6.184;2023-03-11T10:49:48;98433.03;;;25.35;24.81
50123;BME280;36021;48.670;6.184;2023-03-11T10:52:14;98429.41;;;25.27;26.48
50123;BME280;36021;48.670;6.184;2023-03-11T10:54:42;98425.91;;;26.07;27.08
50123;BME280;36021;48.670;6.184;2023-03-11T10:57:46;98431.31;;;27.38;25.40
50123;BME280;36021;48.670;6.184;2023-03-11T11:00:28;98425.19;;;28.87;23.46
50123;BME280;36021;48.670;6.184;2023-03-11T11:02:54;98423.53;;;28.63;22.92
50123;BME280;36021;48.670;6.184;2023-03-11T11:05:28;98427.00;;;28.51;22.50
50123;BME280;36021;48.670;6.184;2023-03-11T11:08:17;98421.47;;;31.16;22.26
50123;BME280;36021;48.670;6.184;2023-03-11T11:10:53;98417.50;;;30.81;22.20
50123;BME280;36021;48.670;6.184;2023-03-11T11:13:32;98419.31;;;31.36;21.94
50123;BME280;36021;48.670;6.184;2023-03-11T11:16:18;98422.19;;;33.08;23.10
50123;BME280;36021;48.670;6.184;2023-03-11T11:21:33;98408.84;;;33.05;20.60
50123;BME280;36021;48.670;6.184;2023-03-11T11:24:29;98408.19;;;32.25;20.04
50123;BME280;36021;48.670;6.184;2023-03-11T11:29:36;98398.31;;;33.92;19.33
50123;BME280;36021;48.670;6.184;2023-03-11T11:35:14;98399.59;;;34.52;19.46
50123;BME280;36021;48.670;6.184;2023-03-11T11:37:46;98394.84;;;34.98;18.89
50123;BME280;36021;48.670;6.184;2023-03-11T11:42:42;98385.31;;;34.00;18.93
50123;BME280;36021;48.670;6.184;2023-03-11T11:50:39;98373.34;;;32.80;20.56
50123;BME280;36021;48.670;6.184;2023-03-11T11:53:18;98379.50;;;34.65;20.00
50123;BME280;36021;48.670;6.184;2023-03-11T11:55:47;98396.09;;;33.31;18.82
50123;BME280;36021;48.670;6.184;2023-03-11T11:58:14;98388.53;;;34.64;19.03
50123;BME280;36021;48.670;6.184;2023-03-11T12:00:44;98388.47;;;34.94;18.63
50123;BME280;36021;48.670;6.184;2023-03-11T12:05:55;98374.41;;;34.08;19.31
50123;BME280;36021;48.670;6.184;2023-03-11T12:08:38;98366.34;;;34.46;18.49
50123;BME280;36021;48.670;6.184;2023-03-11T12:11:09;98359.25;;;33.98;20.34
50123;BME280;36021;48.670;6.184;2023-03-11T12:16:37;98364.03;;;32.42;19.86
50123;BME280;36021;48.670;6.184;2023-03-11T12:27:21;98361.53;;;31.36;19.39
50123;BME280;36021;48.670;6.184;2023-03-11T12:30:02;98376.78;;;32.50;19.40
50123;BME280;36021;48.670;6.184;2023-03-11T12:41:44;98366.88;;;31.05;19.12
50123;BME280;36021;48.670;6.184;2023-03-11T12:49:27;98358.72;;;31.77;18.44
50123;BME280;36021;48.670;6.184;2023-03-11T12:54:46;98346.66;;;33.43;18.63
50123;BME280;36021;48.670;6.184;2023-03-11T13:06:20;98341.88;;;33.40;17.49
50123;BME280;36021;48.670;6.184;2023-03-11T13:08:45;98342.09;;;32.64;18.39
50123;BME280;36021;48.670;6.184;2023-03-11T13:16:41;98345.72;;;33.46;18.17
50123;BME280;36021;48.670;6.184;2023-03-11T13:21:55;98329.41;;;34.88;18.14
50123;BME280;36021;48.670;6.184;2023-03-11T13:35:09;98334.59;;;31.24;18.26
50123;BME280;36021;48.670;6.184;2023-03-11T13:40:45;98333.13;;;31.04;19.48
50123;BME280;36021;48.670;6.184;2023-03-11T13:43:21;98337.34;;;30.67;19.56
50123;BME280;36021;48.670;6.184;2023-03-11T13:45:58;98330.69;;;31.47;20.86
50123;BME280;36021;48.670;6.184;2023-03-11T13:48:27;98336.88;;;31.01;20.99
50123;BME280;36021;48.670;6.184;2023-03-11T13:51:19;98335.28;;;30.83;20.84
50123;BME280;36021;48.670;6.184;2023-03-11T13:53:46;98330.66;;;30.73;20.07
50123;BME280;36021;48.670;6.184;2023-03-11T13:56:24;98334.56;;;30.15;20.09
50123;BME280;36021;48.670;6.184;2023-03-11T13:58:51;98335.25;;;28.84;22.06
50123;BME280;36021;48.670;6.184;2023-03-11T14:10:30;98354.59;;;24.73;24.63
50123;BME280;36021;48.670;6.184;2023-03-11T14:13:13;98351.00;;;24.30;24.47
50123;BME280;36021;48.670;6.184;2023-03-11T14:16:14;98354.41;;;23.46;25.17
50123;BME280;36021;48.670;6.184;2023-03-11T14:18:43;98351.78;;;22.44;25.45
50123;BME280;36021;48.670;6.184;2023-03-11T14:21:15;98348.66;;;22.09;25.77
50123;BME280;36021;48.670;6.184;2023-03-11T14:23:45;98338.16;;;22.46;26.57
50123;BME280;36021;48.670;6.184;2023-03-11T14:26:16;98341.53;;;21.78;26.41
50123;BME280;36021;48.670;6.184;2023-03-11T14:28:46;98350.47;;;21.17;27.14
50123;BME280;36021;48.670;6.184;2023-03-11T14:31:28;98353.41;;;20.45;28.63
50123;BME280;36021;48.670;6.184;2023-03-11T14:36:22;98356.78;;;19.44;30.50
50123;BME280;36021;48.670;6.184;2023-03-11T14:38:47;98349.47;;;18.47;30.63
50123;BME280;36021;48.670;6.184;2023-03-11T14:41:14;98348.25;;;18.13;33.30
50123;BME280;36021;48.670;6.184;2023-03-11T14:43:43;98349.59;;;17.57;34.23
50123;BME280;36021;48.670;6.184;2023-03-11T14:46:19;98354.63;;;17.39;36.99
50123;BME280;36021;48.670;6.184;2023-03-11T14:48:46;98353.31;;;17.49;37.52
50123;BME280;36021;48.670;6.184;2023-03-11T14:51:24;98356.97;;;17.81;53.52
50123;BME280;36021;48.670;6.184;2023-03-11T14:56:44;98356.97;;;17.81;35.24
50123;BME280;36021;48.670;6.184;2023-03-11T14:59:22;98357.78;;;18.79;39.50
50123;BME280;36021;48.670;6.184;2023-03-11T15:01:53;98365.38;;;17.96;36.45
50123;BME280;36021;48.670;6.184;2023-03-11T15:06:48;98365.59;;;18.89;33.68
50123;BME280;36021;48.670;6.184;2023-03-11T15:09:22;98365.69;;;18.57;35.27
50123;BME280;36021;48.670;6.184;2023-03-11T15:11:49;98375.31;;;17.97;42.76